createdAt,value
2023-01-17T00:02:54.138Z,0.10
2023-01-17T00:08:14.572Z,0.10
2023-01-17T00:13:16.359Z,0.30
2023-01-17T00:18:18.043Z,0.20
2023-01-17T00:23:43.352Z,0.20
2023-01-17T00:28:45.953Z,0.20
2023-01-17T00:33:47.835Z,0.20
2023-01-17T00:38:49.461Z,0.20
2023-01-17T00:44:09.743Z,0.10
2023-01-17T00:49:29.977Z,0.20
2023-01-17T00:54:50.203Z,0.22
2023-01-17T01:00:10.456Z,0.20
2023-01-17T01:05:32.297Z,0.10
2023-01-17T01:10:52.565Z,0.20
2023-01-17T01:16:13.297Z,0.43
2023-01-17T01:21:33.257Z,0.10
2023-01-17T01:26:53.615Z,0.55
2023-01-17T01:32:13.861Z,0.52
2023-01-17T01:37:15.521Z,0.13
2023-01-17T01:42:17.596Z,0.13
2023-01-17T01:47:36.284Z,0.20
2023-01-17T01:52:44.858Z,0.10
2023-01-17T01:57:50.695Z,0.30
2023-01-17T02:02:54.892Z,0.30
2023-01-17T02:08:08.794Z,0.10
2023-01-17T02:13:12.862Z,0.10
2023-01-17T02:18:37.473Z,0.30
2023-01-17T02:23:44.316Z,0.28
2023-01-17T02:28:51.779Z,0.10
2023-01-17T02:34:06.060Z,0.17
2023-01-17T02:39:24.408Z,0.20
2023-01-17T02:44:26.109Z,0.20
2023-01-17T02:49:32.104Z,0.13
2023-01-17T02:54:54.054Z,0.20
2023-01-17T03:00:04.906Z,0.30
2023-01-17T03:05:21.924Z,0.15
2023-01-17T03:10:24.304Z,0.40
2023-01-17T03:15:25.951Z,0.20
2023-01-17T03:20:27.697Z,0.30
2023-01-17T03:25:29.500Z,0.10
2023-01-17T03:30:31.181Z,0.40
2023-01-17T03:35:32.849Z,0.28
2023-01-17T03:40:34.471Z,0.10
2023-01-17T03:45:36.301Z,0.20
2023-01-17T03:50:38.298Z,0.20
2023-01-17T03:55:40.233Z,0.28
2023-01-17T04:00:42.550Z,0.30
2023-01-17T04:05:44.213Z,0.35
2023-01-17T04:10:45.906Z,0.20
2023-01-17T04:15:50.320Z,0.47
2023-01-17T04:20:52.594Z,0.20
2023-01-17T04:25:54.255Z,0.25
2023-01-17T04:31:00.300Z,0.20
2023-01-17T04:36:01.999Z,0.20
2023-01-17T04:41:03.675Z,0.30
2023-01-17T04:46:10.218Z,0.20
2023-01-17T04:51:12.416Z,0.13
2023-01-17T04:56:14.377Z,0.35
2023-01-17T05:01:16.071Z,0.20
2023-01-17T05:06:17.770Z,0.40
2023-01-17T05:11:19.513Z,0.25
2023-01-17T05:16:21.224Z,0.40
2023-01-17T05:21:23.129Z,0.32
2023-01-17T05:26:24.878Z,0.40
2023-01-17T05:31:26.648Z,0.40
2023-01-17T05:36:28.412Z,0.35
2023-01-17T05:41:30.107Z,0.20
2023-01-17T05:46:31.785Z,0.40
2023-01-17T05:51:33.677Z,0.30
2023-01-17T05:56:35.700Z,0.50
2023-01-17T06:01:37.372Z,0.40
2023-01-17T06:06:39.031Z,0.40
2023-01-17T06:11:40.707Z,0.50
2023-01-17T06:16:42.619Z,0.75
2023-01-17T06:21:44.285Z,0.20
2023-01-17T06:26:45.964Z,0.22
2023-01-17T06:31:47.704Z,0.50
2023-01-17T06:36:49.350Z,0.30
2023-01-17T06:41:51.035Z,0.20
2023-01-17T06:46:53.621Z,0.30
2023-01-17T06:51:55.442Z,0.38
2023-01-17T06:56:57.254Z,0.30
2023-01-17T07:01:59.286Z,0.32
2023-01-17T07:07:01.359Z,0.30
2023-01-17T07:12:03.787Z,0.50
2023-01-17T07:17:06.076Z,0.45
2023-01-17T07:22:11.104Z,0.50
2023-01-17T07:27:12.826Z,0.45
2023-01-17T07:32:14.498Z,0.70
2023-01-17T07:37:16.266Z,0.30
2023-01-17T07:42:17.972Z,0.32
2023-01-17T07:47:20.206Z,0.40
2023-01-17T07:52:21.907Z,0.50
2023-01-17T07:57:23.741Z,0.30
2023-01-17T08:02:25.478Z,0.40
2023-01-17T08:07:27.211Z,0.90
2023-01-17T08:12:29.726Z,0.88
2023-01-17T08:17:31.466Z,0.93
2023-01-17T08:22:33.499Z,1.05
2023-01-17T08:27:36.244Z,0.80
2023-01-17T08:32:40.946Z,1.40
2023-01-17T08:37:42.908Z,0.77
2023-01-17T08:42:44.828Z,0.80
2023-01-17T08:47:46.920Z,1.10
2023-01-17T08:52:49.614Z,1.00
2023-01-17T08:57:51.530Z,1.30
2023-01-17T09:02:53.951Z,1.80
2023-01-17T09:07:56.787Z,1.30
2023-01-17T09:12:58.443Z,0.77
2023-01-17T09:18:01.598Z,1.00
2023-01-17T09:23:03.911Z,0.68
2023-01-17T09:28:05.668Z,0.90
2023-01-17T09:33:07.324Z,1.02
2023-01-17T09:38:09.064Z,1.20
2023-01-17T09:43:44.491Z,1.58
2023-01-17T09:48:46.877Z,1.40
2023-01-17T09:53:49.084Z,1.20
2023-01-17T09:59:02.820Z,1.00
2023-01-17T10:04:10.616Z,2.40
2023-01-17T10:09:15.189Z,1.80
2023-01-17T10:14:22.618Z,1.90
2023-01-17T10:19:33.113Z,2.92
2023-01-17T10:25:13.273Z,2.30
2023-01-17T10:30:32.634Z,2.05
2023-01-17T10:35:39.202Z,1.80
2023-01-17T10:40:55.352Z,0.90
2023-01-17T10:45:57.627Z,0.77
2023-01-17T10:51:22.479Z,0.85
2023-01-17T10:56:28.386Z,1.08
2023-01-17T11:01:30.453Z,1.10
2023-01-17T11:06:33.480Z,1.85
2023-01-17T11:11:37.621Z,2.35
2023-01-17T11:16:39.642Z,1.55
2023-01-17T11:21:52.175Z,2.75
2023-01-17T11:26:54.139Z,3.67
2023-01-17T11:31:58.899Z,2.67
2023-01-17T11:37:20.897Z,3.75
2023-01-17T11:42:38.720Z,3.63
2023-01-17T11:47:40.486Z,2.47
2023-01-17T11:52:42.602Z,2.65
2023-01-17T11:57:50.580Z,2.28
2023-01-17T12:03:10.541Z,2.65
2023-01-17T12:08:32.232Z,2.15
2023-01-17T12:14:17.309Z,2.95
2023-01-17T12:19:55.489Z,3.70
2023-01-17T12:25:24.619Z,3.83
2023-01-17T12:30:41.431Z,2.65
2023-01-17T12:35:50.943Z,3.03
2023-01-17T12:41:03.895Z,3.58
2023-01-17T12:46:21.321Z,2.55
2023-01-17T12:51:29.514Z,3.42
2023-01-17T12:56:37.464Z,3.00
2023-01-17T13:01:43.458Z,3.47
2023-01-17T13:07:00.627Z,3.67
2023-01-17T13:12:07.177Z,4.35
2023-01-17T13:17:20.932Z,4.82
2023-01-17T13:22:27.169Z,5.75
2023-01-17T13:27:49.782Z,4.72
2023-01-17T13:33:03.662Z,6.82
2023-01-17T13:38:43.972Z,6.30
2023-01-17T13:44:04.585Z,5.93
2023-01-17T13:49:35.253Z,6.53
2023-01-17T13:54:54.802Z,5.45
2023-01-17T13:59:58.046Z,7.35
2023-01-17T14:05:05.523Z,7.88
2023-01-17T14:10:22.825Z,5.95
2023-01-17T14:15:29.956Z,4.07
2023-01-17T14:20:45.945Z,2.80
2023-01-17T14:25:47.665Z,2.85
2023-01-17T14:30:54.504Z,2.17
2023-01-17T14:36:04.847Z,1.70
2023-01-17T14:41:15.434Z,1.67
2023-01-17T14:46:26.672Z,1.33
2023-01-17T14:51:28.902Z,1.75
2023-01-17T14:56:31.281Z,1.10
2023-01-17T15:01:34.204Z,1.38
2023-01-17T15:06:41.087Z,1.67
2023-01-17T15:11:42.886Z,4.97
2023-01-17T15:16:44.649Z,3.60
2023-01-17T15:21:52.397Z,2.35
2023-01-17T15:26:54.924Z,2.60
2023-01-17T15:32:03.516Z,3.83
2023-01-17T15:37:32.743Z,2.05
2023-01-17T15:42:38.655Z,2.72
2023-01-17T15:47:40.482Z,2.53
2023-01-17T15:53:00.615Z,2.08
2023-01-17T15:58:04.319Z,3.03
2023-01-17T16:03:26.421Z,1.95
2023-01-17T16:08:40.193Z,2.33
2023-01-17T16:13:43.627Z,2.30
2023-01-17T16:18:46.742Z,1.70
2023-01-17T16:23:48.818Z,2.45
2023-01-17T16:28:51.385Z,2.20
2023-01-17T16:33:53.465Z,2.28
2023-01-17T16:38:55.126Z,1.92
2023-01-17T16:44:02.707Z,1.48
2023-01-17T16:49:05.051Z,1.23
2023-01-17T16:54:06.785Z,1.27
2023-01-17T16:59:08.705Z,1.45
2023-01-17T17:04:13.051Z,1.08
2023-01-17T17:09:14.739Z,0.88
2023-01-17T17:14:16.465Z,1.02
2023-01-17T17:19:19.455Z,1.15
2023-01-17T17:24:21.114Z,0.90
2023-01-17T17:29:22.771Z,1.17
2023-01-17T17:34:27.833Z,1.15
2023-01-17T17:39:29.508Z,1.30
2023-01-17T17:44:31.330Z,1.85
2023-01-17T17:49:33.035Z,1.05
2023-01-17T17:54:35.475Z,1.73
2023-01-17T17:59:37.268Z,1.40
2023-01-17T18:04:38.993Z,1.00
2023-01-17T18:09:40.853Z,1.13
2023-01-17T18:14:42.649Z,1.30
2023-01-17T18:19:46.250Z,1.27
2023-01-17T18:24:47.940Z,1.50
2023-01-17T18:29:49.660Z,0.90
2023-01-17T18:34:51.640Z,0.95
2023-01-17T18:39:53.314Z,1.05
2023-01-17T18:44:55.009Z,1.10
2023-01-17T18:49:56.869Z,1.17
2023-01-17T18:54:58.540Z,1.15
2023-01-17T19:00:02.431Z,1.20
2023-01-17T19:05:05.684Z,0.80
2023-01-17T19:10:07.933Z,1.50
2023-01-17T19:15:10.307Z,1.02
2023-01-17T19:20:13.417Z,1.35
2023-01-17T19:25:15.383Z,1.00
2023-01-17T19:30:17.712Z,1.00
2023-01-17T19:35:22.460Z,1.00
2023-01-17T19:40:24.280Z,1.25
2023-01-17T19:45:26.117Z,1.10
2023-01-17T19:50:27.839Z,0.90
2023-01-17T19:55:29.573Z,0.90
2023-01-17T20:00:45.902Z,1.00
2023-01-17T20:05:55.904Z,1.02
2023-01-17T20:11:02.459Z,1.10
2023-01-17T20:16:06.238Z,0.88
2023-01-17T20:21:10.346Z,1.05
2023-01-17T20:26:12.153Z,0.80
2023-01-17T20:31:16.556Z,0.77
2023-01-17T20:36:21.053Z,1.10
2023-01-17T20:41:30.203Z,0.90
2023-01-17T20:46:35.696Z,1.00
2023-01-17T20:51:40.221Z,0.90
2023-01-17T20:56:42.883Z,1.00
2023-01-17T21:01:45.339Z,0.93
2023-01-17T21:06:47.660Z,0.90
2023-01-17T21:11:49.494Z,1.10
2023-01-17T21:16:51.398Z,1.00
2023-01-17T21:21:53.262Z,0.95
2023-01-17T21:26:55.378Z,1.08
2023-01-17T21:31:57.121Z,0.93
2023-01-17T21:36:58.972Z,1.00
2023-01-17T21:42:00.636Z,1.00
2023-01-17T21:47:05.296Z,0.90
2023-01-17T21:52:07.126Z,1.33
2023-01-17T21:57:28.648Z,1.00
2023-01-17T22:02:30.378Z,1.67
2023-01-17T22:07:32.061Z,1.75
2023-01-17T22:12:34.098Z,1.70
2023-01-17T22:17:38.492Z,1.88
2023-01-17T22:22:40.246Z,2.22
2023-01-17T22:27:41.927Z,1.58
2023-01-17T22:32:43.583Z,1.75
2023-01-17T22:37:45.280Z,1.45
2023-01-17T22:42:47.385Z,1.55
2023-01-17T22:47:49.195Z,1.65
2023-01-17T22:52:50.849Z,1.75
2023-01-17T22:57:52.513Z,1.42
2023-01-17T23:02:54.225Z,1.67
2023-01-17T23:07:56.014Z,1.60
2023-01-17T23:12:57.966Z,1.48
2023-01-17T23:18:25.905Z,1.63
2023-01-17T23:23:27.606Z,1.73
2023-01-17T23:28:29.264Z,1.23
2023-01-17T23:33:30.921Z,1.55
2023-01-17T23:38:37.700Z,1.23
2023-01-17T23:43:39.377Z,1.52
2023-01-17T23:48:41.052Z,1.20
2023-01-17T23:53:42.953Z,1.63
2023-01-17T23:58:44.963Z,1.83
